This is the latest recevied weather packets stored in our database for station/object HOWARD. If no packets are shown the sender has not sent any weather packets the latest 10 day(s).
| Time | Temp. | Humidity | Pressure | Rain* | Wind** | Luminosity | Snow |
|---|---|---|---|---|---|---|---|
| 1777525300 | 0° C | 84% | 1016.6 hPa | 0 mm | - | - | - |
| 1777524700 | 0° C | 83% | 1016.6 hPa | 0 mm | - | - | - |
| 1777524100 | 0° C | 83% | 1016.7 hPa | 0 mm | - | - | - |
| 1777523500 | 0° C | 82% | 1016.7 hPa | 0 mm | - | - | - |
| 1777522900 | 0° C | 82% | 1016.7 hPa | 0 mm | - | - | - |
| 1777522397 | 0° C | 81% | 1016.7 hPa | 0 mm | - | - | - |
| 1777522300 | 0° C | 81% | 1016.7 hPa | 0 mm | - | - | - |
| 1777521700 | 0° C | 82% | 1016.8 hPa | 0 mm | - | - | - |
| 1777521100 | 0° C | 81% | 1016.6 hPa | 0 mm | - | - | - |
| 1777520500 | 0° C | 80% | 1016.5 hPa | 0 mm | - | - | - |
| 1777519900 | 0° C | 79% | 1016.5 hPa | 0 mm | - | - | - |
| 1777519300 | 0.56° C | 78% | 1016.4 hPa | 0 mm | - | - | - |
| 1777518700 | 0.56° C | 78% | 1016.3 hPa | 0 mm | - | - | - |
| 1777518100 | 0.56° C | 78% | 1016.3 hPa | 0 mm | - | - | - |
| 1777517500 | 0.56° C | 77% | 1016.4 hPa | 0 mm | - | - | - |
| 1777516900 | 0.56° C | - | 1016.3 hPa | 0 mm | - | - | - |
| 1777516300 | 1.11° C | 73% | 1016.4 hPa | 0 mm | - | - | - |
| 1777515700 | 1.11° C | 72% | 1016.3 hPa | 0 mm | - | - | - |
| 1777515100 | 1.11° C | 71% | 1016.2 hPa | 0 mm | - | - | - |
| 1777514500 | 1.11° C | 72% | 1016.1 hPa | 0 mm | - | - | - |
| 1777513941 | 1.67° C | 70% | 1016.1 hPa | 0 mm | - | - | - |
| 1777513900 | 1.67° C | 70% | 1016.1 hPa | 0 mm | - | - | - |
| 1777513342 | 2.22° C | 68% | 1016.1 hPa | 0 mm | - | - | - |
| 1777513300 | 2.22° C | 68% | 1016.1 hPa | 0 mm | - | - | - |
| 1777512700 | 3.33° C | 61% | 1016.1 hPa | 0 mm | - | - | - |
* Rain latest hour (hover to see other rain measurements)
** Current wind speed in m/s (hover to see current wind gust speed)